Archival Weather

Václav Havel Intl Apt

Prague, Czechia (LKPR)

Report from: Monday, May 29, 2023 3:30 PM CEST
Current time: Saturday, February 24, 2024 4:54 PM CET

Current weather – Weather history – Daily summaries
Weather forecast

Temperature22.0°C (71.6°F)
Dew point5.0°C (41.0°F)
Winds 7 kts (3.6 m/s, 8.1 mph) Vrb
Winds variableWinds variable from Northwest (320°) to East (80°)
Clouds Sky clear
Altimeter30.09 in.Hg (1019 mB)
Relative humidity33 %
Density altitude753 ft. (229 m)
Remarks Ceiling and visibility OK
No significant changes expected in the next two hours
Flight conditions Visual Meteorological Conditions
Raw dataLKPR 291330Z 03007KT 320V080 CAVOK 22/05 Q1019 NOSIG
An error has occurred. This application may no longer respond until reloaded. Reload 🗙